KPIA

General Downing - Peoria International Airport

Peoria, Illinois, USA
METAR KPIA 200054Z 20017KT 10SM CLR 06/M03 A2981 RMK AO2 SLP100 T00611028 $
Observed Flight Rules
Jan-20 @ 00:54 UTC (31 minutes ago) Visual Flight Rules
Wind Visibility Clouds
200° at 17 knots 10 miles
  • Clear skies
Temperatures Readings
Current 6°C / 43°F
Dewpoint -3°C / 27°F
Humidity 53%
Altimeter 29.81" Hg
Pressure 1010 hPa
Elevation 205
METAR KPIA 200054Z 20017KT 10SM CLR 06/M03 A2981 RMK AO2 SLP100 T00611028 $
Observed Flight Rules
Jan-20 @ 00:54 UTC
(31 minutes ago)
VFR
Wind Visibility
200° at 17 knots 10 miles
Clouds
  • Clear skies
Temperature Dewpoint
6°C / 43°F -3°C / 27°F
Humidity Altimeter Pressure
53% 29.81" Hg 1010 hPa